Time;durP1;ratioP1;P1;durP2;ratioP2;P2;SDS_P1;SDS_P2;PMS_P1;PMS_P2;Temp;Humidity;BMP_temperature;BMP_pressure;BME280_temperature;BME280_humidity;BME280_pressure;Samples;Min_cycle;Max_cycle;Signal;HPM_P1;HPM_P2
2021/07/17 00:01:41;;;;;;;3.33;0.50;;;13.30;93.30;;;;;;5055829;28;20757;-88
2021/07/17 00:04:08;;;;;;;3.50;0.50;;;13.10;93.20;;;;;;5063045;28;20397;-89
2021/07/17 00:06:35;;;;;;;2.70;0.40;;;13.00;92.20;;;;;;5066199;28;20397;-88
2021/07/17 00:09:04;;;;;;;20.02;1.35;;;12.90;94.00;;;;;;5065309;28;20500;-88
2021/07/17 00:11:31;;;;;;;3.13;0.27;;;12.70;93.30;;;;;;5085497;28;20867;-89
2021/07/17 00:13:58;;;;;;;3.17;0.70;;;12.60;93.40;;;;;;5089069;28;20380;-89
2021/07/17 00:16:28;;;;;;;1.40;0.30;;;12.60;92.50;;;;;;5073396;28;20396;-89
2021/07/17 00:18:55;;;;;;;2.63;0.50;;;12.50;92.90;;;;;;5074284;28;20448;-92
2021/07/17 00:21:23;;;;;;;1.80;0.40;;;12.40;93.40;;;;;;5078100;28;20500;-90
2021/07/17 00:23:52;;;;;;;1.47;0.33;;;12.40;93.20;;;;;;5072699;28;20391;-91
2021/07/17 00:26:19;;;;;;;1.70;0.40;;;12.50;92.90;;;;;;5071539;28;20374;-92
2021/07/17 00:28:46;;;;;;;2.30;0.50;;;12.70;92.70;;;;;;5079538;28;20386;-91
2021/07/17 00:31:13;;;;;;;6.90;0.55;;;12.60;92.30;;;;;;5080844;28;20383;-90
2021/07/17 00:33:40;;;;;;;2.00;0.40;;;12.40;92.90;;;;;;5090084;28;20369;-89
2021/07/17 00:36:07;;;;;;;1.90;0.35;;;12.40;92.80;;;;;;5090495;28;20379;-90
2021/07/17 00:38:34;;;;;;;1.83;0.30;;;12.40;93.00;;;;;;5091044;28;20373;-90
2021/07/17 00:41:02;;;;;;;4.10;0.45;;;12.40;93.00;;;;;;5090893;28;20380;-87
2021/07/17 00:43:29;;;;;;;1.65;0.40;;;12.30;92.60;;;;;;5090617;28;20404;-88
2021/07/17 00:45:56;;;;;;;3.28;0.50;;;12.20;92.60;;;;;;5090539;28;20399;-89
2021/07/17 00:48:23;;;;;;;27.92;1.90;;;12.20;92.10;;;;;;5090191;28;20410;-87
2021/07/17 00:50:51;;;;;;;1.20;0.40;;;12.20;91.80;;;;;;5090596;28;20387;-91
2021/07/17 00:53:18;;;;;;;1.20;0.38;;;12.30;91.70;;;;;;5090845;28;20376;-89
2021/07/17 00:55:52;;;;;;;6.25;0.40;;;12.30;92.80;;;;;;5090724;28;20394;-88
2021/07/17 00:58:22;;;;;;;2.00;0.40;;;12.40;92.10;;;;;;5090798;28;20420;-88
2021/07/17 01:00:53;;;;;;;1.75;0.35;;;12.40;92.10;;;;;;5095645;28;20824;-88
2021/07/17 01:03:20;;;;;;;1.10;0.30;;;12.40;92.30;;;;;;5100912;28;20388;-88
2021/07/17 01:05:48;;;;;;;1.85;0.28;;;12.40;92.20;;;;;;5097128;28;20434;-88
2021/07/17 01:08:16;;;;;;;0.75;0.50;;;12.40;93.60;;;;;;5085786;28;20401;-83
2021/07/17 01:10:43;;;;;;;1.98;0.40;;;12.40;92.20;;;;;;5073205;28;20751;-90
2021/07/17 01:13:10;;;;;;;1.25;0.40;;;12.40;93.00;;;;;;5065785;28;20474;-87
2021/07/17 01:15:37;;;;;;;5.97;0.43;;;12.60;92.60;;;;;;5072864;28;20394;-88
2021/07/17 01:18:05;;;;;;;1.75;0.13;;;12.50;91.40;;;;;;5071542;28;20421;-90
2021/07/17 01:20:33;;;;;;;3.03;0.30;;;12.50;91.60;;;;;;5067656;28;20404;-89
2021/07/17 01:23:00;;;;;;;6.03;0.35;;;12.40;92.60;;;;;;5072349;28;20402;-87
2021/07/17 01:25:29;;;;;;;3.78;0.32;;;12.40;92.10;;;;;;5081075;28;20768;-89
2021/07/17 01:27:58;;;;;;;3.05;0.20;;;12.30;92.90;;;;;;5071033;28;20435;-88
2021/07/17 01:30:29;;;;;;;2.60;0.10;;;12.20;93.20;;;;;;5071289;28;20464;-91
2021/07/17 01:32:57;;;;;;;1.83;0.20;;;12.10;94.00;;;;;;5065396;28;20907;-95
2021/07/17 01:35:24;;;;;;;4.80;0.32;;;12.10;95.00;;;;;;5070053;28;20821;-90
2021/07/17 01:37:51;;;;;;;1.33;0.30;;;12.20;94.20;;;;;;5077219;28;20405;-90
2021/07/17 01:40:19;;;;;;;0.70;0.13;;;12.20;94.50;;;;;;5075197;28;20459;-88
2021/07/17 01:42:48;;;;;;;0.77;0.30;;;12.20;94.40;;;;;;5076235;28;20523;-88
2021/07/17 01:45:35;;;;;;;1.63;0.30;;;12.30;94.80;;;;;;5088440;28;20388;-86
2021/07/17 01:48:03;;;;;;;0.30;0.10;;;12.30;95.30;;;;;;5058531;28;20506;-86
2021/07/17 01:50:32;;;;;;;0.75;0.28;;;12.40;95.00;;;;;;5070905;28;20388;-89
2021/07/17 01:53:00;;;;;;;0.65;0.17;;;12.50;94.50;;;;;;5073973;28;20386;-86
2021/07/17 01:55:28;;;;;;;0.77;0.20;;;12.40;95.50;;;;;;5072639;28;20409;-86
2021/07/17 01:57:56;;;;;;;2.00;0.60;;;12.30;94.50;;;;;;5080038;28;20810;-86
2021/07/17 02:00:23;;;;;;;0.63;0.30;;;12.30;95.50;;;;;;5070978;28;20745;-88
2021/07/17 02:02:50;;;;;;;2.50;0.22;;;12.30;95.60;;;;;;5070296;28;20884;-86
2021/07/17 02:05:19;;;;;;;1.80;0.30;;;12.30;94.70;;;;;;5064451;28;21237;-88
2021/07/17 02:07:46;;;;;;;1.10;0.22;;;12.30;94.90;;;;;;5068105;28;20398;-88
2021/07/17 02:10:17;;;;;;;0.50;0.20;;;12.40;95.90;;;;;;5061999;28;20868;-87
2021/07/17 02:12:59;;;;;;;2.08;0.22;;;12.50;95.90;;;;;;5067576;28;20390;-88
2021/07/17 02:15:26;;;;;;;0.50;0.17;;;12.60;95.90;;;;;;5069196;28;20837;-88
2021/07/17 02:17:54;;;;;;;0.50;0.20;;;12.60;94.90;;;;;;5072854;28;20402;-88
2021/07/17 02:20:22;;;;;;;1.40;0.20;;;12.70;94.90;;;;;;5071459;28;20426;-88
2021/07/17 02:22:50;;;;;;;2.88;0.25;;;12.80;93.60;;;;;;5083992;28;20381;-88
2021/07/17 02:25:17;;;;;;;1.65;0.25;;;12.90;92.40;;;;;;5072740;28;20413;-88
2021/07/17 02:27:44;;;;;;;1.02;0.20;;;12.90;92.00;;;;;;5072412;28;20413;-88
2021/07/17 02:30:12;;;;;;;1.42;0.10;;;12.70;92.30;;;;;;5074687;28;20447;-91
2021/07/17 02:32:39;;;;;;;1.23;0.38;;;12.70;92.80;;;;;;5079261;28;20378;-88
2021/07/17 02:35:07;;;;;;;3.67;1.08;;;12.80;94.10;;;;;;5079196;28;20444;-88
2021/07/17 02:37:34;;;;;;;1.75;0.50;;;12.80;93.30;;;;;;5077840;28;20426;-90
2021/07/17 02:40:01;;;;;;;0.75;0.40;;;12.70;92.40;;;;;;5078170;28;20396;-87
2021/07/17 02:42:28;;;;;;;2.30;0.20;;;12.50;92.70;;;;;;5071145;28;20398;-87
2021/07/17 02:44:55;;;;;;;1.00;0.20;;;12.20;93.00;;;;;;5069798;28;20447;-87
2021/07/17 02:47:22;;;;;;;0.15;0.10;;;12.20;93.50;;;;;;5058814;28;20424;-89
2021/07/17 02:49:49;;;;;;;2.80;0.20;;;12.20;94.10;;;;;;5079482;28;20410;-89
2021/07/17 02:52:16;;;;;;;1.17;0.20;;;12.20;94.20;;;;;;5084092;28;20388;-89
2021/07/17 02:54:43;;;;;;;1.40;0.10;;;12.20;94.80;;;;;;5061865;28;20414;-89
2021/07/17 02:57:10;;;;;;;0.70;0.20;;;12.20;94.60;;;;;;5067104;28;20405;-90
2021/07/17 02:59:37;;;;;;;4.18;0.10;;;12.20;94.30;;;;;;5056063;28;20390;-90
2021/07/17 03:02:04;;;;;;;3.40;0.30;;;12.20;93.20;;;;;;5060445;28;20947;-89
2021/07/17 03:04:31;;;;;;;1.10;0.20;;;12.20;94.30;;;;;;5073354;28;20896;-88
2021/07/17 03:06:58;;;;;;;1.40;0.10;;;12.10;93.50;;;;;;5071569;28;20897;-88
2021/07/17 03:09:25;;;;;;;8.80;0.40;;;12.10;92.80;;;;;;5073680;28;20385;-89
2021/07/17 03:11:52;;;;;;;64.47;3.83;;;12.00;92.90;;;;;;5078823;28;20417;-89
2021/07/17 03:14:19;;;;;;;4.88;0.13;;;11.90;93.20;;;;;;5078342;28;20451;-87
2021/07/17 03:16:47;;;;;;;0.47;0.20;;;11.90;93.00;;;;;;5073699;28;20384;-87
2021/07/17 03:19:14;;;;;;;0.20;0.10;;;11.90;92.60;;;;;;5092547;28;20779;-89
2021/07/17 03:21:41;;;;;;;0.70;0.10;;;11.90;93.80;;;;;;5080421;28;20470;-89
2021/07/17 03:24:08;;;;;;;0.70;0.10;;;11.90;94.00;;;;;;5057057;28;20398;-88
2021/07/17 03:26:35;;;;;;;3.30;0.20;;;12.00;93.80;;;;;;5073501;28;20398;-89
2021/07/17 03:29:02;;;;;;;0.50;0.10;;;12.00;93.50;;;;;;5074523;28;20425;-87
2021/07/17 03:31:31;;;;;;;1.17;0.10;;;12.00;94.40;;;;;;5058352;28;20427;-87
2021/07/17 03:33:59;;;;;;;0.50;0.10;;;11.90;94.70;;;;;;5067908;28;20480;-89
2021/07/17 03:36:27;;;;;;;0.98;0.15;;;11.80;94.20;;;;;;5088264;28;20421;-89
2021/07/17 03:38:55;;;;;;;13.40;1.00;;;11.80;94.50;;;;;;5092769;28;20384;-89
2021/07/17 03:41:22;;;;;;;3.70;0.20;;;11.90;94.20;;;;;;5075585;28;20396;-90
2021/07/17 03:43:49;;;;;;;1.50;0.40;;;11.90;93.90;;;;;;5066182;28;20967;-89
2021/07/17 03:46:16;;;;;;;0.50;0.17;;;11.90;94.10;;;;;;5053243;28;20455;-90
2021/07/17 03:48:44;;;;;;;1.80;0.10;;;12.10;93.70;;;;;;5051754;28;20845;-88
2021/07/17 03:51:11;;;;;;;3.70;0.10;;;12.10;93.30;;;;;;5070653;28;20394;-90
2021/07/17 03:53:38;;;;;;;1.65;0.30;;;12.10;93.00;;;;;;5060894;28;20422;-88
2021/07/17 03:56:05;;;;;;;1.58;0.20;;;11.90;93.40;;;;;;5067066;28;20433;-88
2021/07/17 03:58:32;;;;;;;6.55;0.30;;;11.90;93.20;;;;;;5069946;28;20398;-89
2021/07/17 04:01:00;;;;;;;1.90;0.17;;;11.90;92.60;;;;;;5064456;28;20930;-85
2021/07/17 04:03:27;;;;;;;1.55;0.20;;;12.00;91.50;;;;;;5060548;28;20382;-89
2021/07/17 04:05:54;;;;;;;0.95;0.17;;;11.90;92.20;;;;;;5088798;28;20373;-89
2021/07/17 04:08:21;;;;;;;1.60;0.13;;;12.00;92.20;;;;;;5086622;28;20508;-88
2021/07/17 04:10:48;;;;;;;23.50;1.10;;;12.00;92.60;;;;;;5076371;28;20391;-90
2021/07/17 04:13:15;;;;;;;4.22;0.30;;;12.00;91.40;;;;;;5080290;28;20463;-90
2021/07/17 04:15:42;;;;;;;2.53;0.80;;;11.90;91.90;;;;;;5076668;28;20380;-88
2021/07/17 04:18:09;;;;;;;0.20;0.10;;;11.80;92.20;;;;;;5078682;28;20407;-90
2021/07/17 04:20:36;;;;;;;126.10;99.18;;;11.90;92.70;;;;;;5070900;28;20405;-85
2021/07/17 04:23:04;;;;;;;16.02;1.50;;;11.90;93.60;;;;;;5067099;28;20390;-86
2021/07/17 04:25:31;;;;;;;0.15;0.10;;;11.90;93.80;;;;;;5067146;28;20393;-86
2021/07/17 04:27:58;;;;;;;1.90;0.10;;;11.80;94.70;;;;;;5069895;28;20406;-84
2021/07/17 04:30:25;;;;;;;1.38;0.28;;;11.80;93.50;;;;;;5069948;28;20450;-84
2021/07/17 04:32:52;;;;;;;0.60;0.13;;;11.80;93.10;;;;;;5069223;28;20377;-85
2021/07/17 04:35:19;;;;;;;0.88;0.10;;;11.80;93.20;;;;;;5072836;28;20372;-86
2021/07/17 04:37:48;;;;;;;1.00;0.40;;;11.80;93.20;;;;;;5084552;28;20396;-86
2021/07/17 04:40:16;;;;;;;6.40;2.03;;;11.80;92.00;;;;;;5065575;28;20812;-85
2021/07/17 04:42:43;;;;;;;20.92;1.60;;;11.80;91.10;;;;;;5049757;28;20486;-85
2021/07/17 04:45:10;;;;;;;7.88;0.60;;;11.80;91.20;;;;;;5057597;28;20387;-83
2021/07/17 04:47:38;;;;;;;9.35;0.47;;;11.80;91.60;;;;;;5053921;28;20405;-85
2021/07/17 04:50:05;;;;;;;6.00;0.33;;;11.70;92.80;;;;;;5049130;28;20485;-86
2021/07/17 04:52:32;;;;;;;40.75;2.28;;;11.70;92.90;;;;;;5065388;28;20399;-84
2021/07/17 04:54:59;;;;;;;29.88;3.42;;;11.80;92.80;;;;;;5049367;28;20390;-87
2021/07/17 04:57:26;;;;;;;11.27;0.90;;;11.80;92.50;;;;;;5049972;28;20463;-84
2021/07/17 04:59:53;;;;;;;110.97;6.13;;;11.70;93.00;;;;;;5062234;28;20382;-82
2021/07/17 05:02:20;;;;;;;21.90;1.00;;;11.70;92.00;;;;;;5058404;28;20486;-84
2021/07/17 05:04:48;;;;;;;2.60;0.32;;;11.60;92.40;;;;;;5051664;28;21325;-82
2021/07/17 05:07:15;;;;;;;10.55;1.08;;;11.50;92.50;;;;;;5062059;28;20444;-84
2021/07/17 05:09:42;;;;;;;11.32;0.63;;;11.50;92.20;;;;;;5063224;28;20928;-85
2021/07/17 05:12:09;;;;;;;17.00;0.90;;;11.40;93.20;;;;;;5050891;28;20372;-85
2021/07/17 05:14:36;;;;;;;8.20;0.65;;;11.40;92.80;;;;;;5055432;28;20402;-86
2021/07/17 05:17:03;;;;;;;12.90;0.52;;;11.30;93.50;;;;;;5053488;28;20388;-83
2021/07/17 05:19:31;;;;;;;1.60;0.30;;;11.30;93.30;;;;;;5060729;28;20398;-84
2021/07/17 05:21:58;;;;;;;1.80;0.13;;;11.30;93.90;;;;;;5062614;28;20396;-88
2021/07/17 05:24:24;;;;;;;7.20;0.30;;;11.30;93.40;;;;;;5072540;28;20385;-85
2021/07/17 05:26:53;;;;;;;0.50;0.20;;;11.20;93.60;;;;;;5070064;28;20406;-84
2021/07/17 05:29:19;;;;;;;4.30;0.30;;;11.20;93.90;;;;;;5056249;28;20909;-83
2021/07/17 05:31:46;;;;;;;2.47;0.10;;;11.20;93.80;;;;;;5070562;28;20393;-84
2021/07/17 05:34:13;;;;;;;0.40;0.10;;;11.20;93.70;;;;;;5070099;28;20374;-84
2021/07/17 05:36:40;;;;;;;6.15;0.28;;;11.20;94.50;;;;;;5058533;28;20456;-85
2021/07/17 05:39:07;;;;;;;1.90;0.17;;;11.20;94.80;;;;;;5070772;28;20394;-86
2021/07/17 05:41:34;;;;;;;1.90;0.20;;;11.10;94.10;;;;;;5070837;28;20386;-85
2021/07/17 05:44:01;;;;;;;1.13;0.10;;;11.10;94.60;;;;;;5060049;28;20409;-86
2021/07/17 05:46:28;;;;;;;1.40;0.13;;;11.10;94.50;;;;;;5071940;28;20396;-84
2021/07/17 05:48:55;;;;;;;1.02;0.22;;;11.10;94.30;;;;;;5072831;28;20402;-89
2021/07/17 05:51:24;;;;;;;85.32;5.05;;;11.10;95.10;;;;;;5063801;28;20485;-84
2021/07/17 05:53:51;;;;;;;1.73;0.20;;;11.10;93.70;;;;;;5063460;28;20418;-83
2021/07/17 05:56:18;;;;;;;0.50;0.10;;;11.10;94.60;;;;;;5092076;28;20447;-83
2021/07/17 05:58:45;;;;;;;2.00;0.10;;;11.10;94.40;;;;;;5080551;28;20380;-85
2021/07/17 06:01:12;;;;;;;1.25;0.20;;;11.10;93.80;;;;;;5079062;28;20394;-84
2021/07/17 06:03:41;;;;;;;24.25;1.33;;;11.20;93.00;;;;;;5073666;28;20391;-83
2021/07/17 06:06:09;;;;;;;0.90;0.20;;;11.20;93.10;;;;;;5074869;28;20404;-83
2021/07/17 06:08:36;;;;;;;1.70;0.10;;;11.30;93.10;;;;;;5069654;28;20892;-85
2021/07/17 06:11:03;;;;;;;0.60;0.20;;;11.30;93.60;;;;;;5065503;28;20394;-84
2021/07/17 06:13:30;;;;;;;0.85;0.30;;;11.30;93.30;;;;;;5070904;28;20451;-84
2021/07/17 06:15:57;;;;;;;1.67;0.20;;;11.20;94.20;;;;;;5069776;28;20520;-84
2021/07/17 06:18:24;;;;;;;1.67;0.20;;;11.20;93.30;;;;;;5062976;28;20407;-84
2021/07/17 06:20:51;;;;;;;0.32;0.20;;;11.20;93.20;;;;;;5068367;28;20395;-86
2021/07/17 06:23:18;;;;;;;1.20;0.30;;;11.00;93.60;;;;;;5073044;28;20398;-86
2021/07/17 06:25:45;;;;;;;1.60;0.30;;;11.00;93.30;;;;;;5081890;28;20898;-87
2021/07/17 06:28:12;;;;;;;0.60;0.20;;;10.90;94.40;;;;;;5089106;28;20423;-87
2021/07/17 06:30:41;;;;;;;3.90;0.45;;;10.80;93.90;;;;;;5092111;28;20368;-86
2021/07/17 06:33:08;;;;;;;0.77;0.20;;;10.80;94.20;;;;;;5089083;28;20381;-88
2021/07/17 06:35:35;;;;;;;0.70;0.20;;;10.70;94.10;;;;;;5092019;28;20373;-87
2021/07/17 06:38:03;;;;;;;3.70;0.20;;;10.60;94.90;;;;;;5084504;28;21105;-87
2021/07/17 06:40:30;;;;;;;1.52;0.38;;;10.50;95.10;;;;;;5084523;28;20374;-84
2021/07/17 06:42:57;;;;;;;2.20;0.30;;;10.50;95.20;;;;;;5092710;28;20373;-84
2021/07/17 06:45:24;;;;;;;17.52;1.50;;;10.40;95.70;;;;;;5064257;28;20391;-86
2021/07/17 06:47:51;;;;;;;18.63;1.42;;;10.30;95.90;;;;;;5066926;28;20417;-87
2021/07/17 06:50:21;;;;;;;2.33;0.35;;;10.30;95.30;;;;;;5053555;28;20391;-86
2021/07/17 06:52:48;;;;;;;1.73;0.55;;;10.20;95.60;;;;;;5068205;28;20406;-86
2021/07/17 06:55:15;;;;;;;3.20;0.50;;;10.10;96.30;;;;;;5066572;28;20388;-85
2021/07/17 06:57:47;;;;;;;1.02;0.35;;;10.00;97.20;;;;;;5065596;28;20406;-86
2021/07/17 07:00:16;;;;;;;1.40;0.30;;;10.00;96.90;;;;;;5065433;28;20391;-84
2021/07/17 07:02:43;;;;;;;1.20;0.40;;;9.90;96.90;;;;;;5080221;28;20465;-85
2021/07/17 07:05:12;;;;;;;3.03;0.28;;;9.90;96.80;;;;;;5058773;28;20395;-87
2021/07/17 07:07:39;;;;;;;0.65;0.32;;;9.90;97.00;;;;;;5063905;28;20419;-88
2021/07/17 07:10:08;;;;;;;0.52;0.30;;;9.80;97.10;;;;;;5065037;28;20473;-89
2021/07/17 07:12:39;;;;;;;0.77;0.40;;;9.80;97.00;;;;;;5061235;28;20500;-88
2021/07/17 07:15:10;;;;;;;1.40;0.60;;;9.80;97.30;;;;;;5064091;28;20442;-88
2021/07/17 07:17:39;;;;;;;1.42;0.60;;;9.80;98.00;;;;;;5064848;28;20400;-87
2021/07/17 07:20:11;;;;;;;2.03;0.52;;;9.70;97.90;;;;;;5062206;28;20503;-90
2021/07/17 07:22:38;;;;;;;1.20;0.30;;;9.60;98.30;;;;;;5065313;28;20376;-87
2021/07/17 07:25:08;;;;;;;1.95;0.50;;;9.60;98.40;;;;;;5055646;28;20474;-88
2021/07/17 07:27:36;;;;;;;1.77;0.47;;;9.50;98.40;;;;;;5057513;28;20411;-87
2021/07/17 07:30:05;;;;;;;1.52;0.47;;;9.60;98.30;;;;;;5054912;28;20478;-87
2021/07/17 07:32:32;;;;;;;2.58;0.40;;;9.60;98.90;;;;;;5067453;28;20403;-86
2021/07/17 07:34:59;;;;;;;1.17;0.60;;;9.50;98.70;;;;;;5064466;28;20384;-87
2021/07/17 07:37:27;;;;;;;1.80;0.43;;;9.50;98.30;;;;;;5052184;28;20952;-87
2021/07/17 07:39:54;;;;;;;1.67;0.52;;;9.50;98.90;;;;;;5065696;28;20394;-86
2021/07/17 07:42:23;;;;;;;2.20;0.50;;;9.50;98.90;;;;;;5086713;28;20403;-88
2021/07/17 07:44:51;;;;;;;2.47;0.65;;;9.50;98.80;;;;;;5069929;28;20400;-88
2021/07/17 07:47:19;;;;;;;1.67;0.60;;;9.50;99.20;;;;;;5052879;28;20450;-87
2021/07/17 07:49:48;;;;;;;1.48;0.52;;;9.40;99.60;;;;;;5051328;28;20399;-87
2021/07/17 07:52:15;;;;;;;1.00;0.55;;;9.40;99.60;;;;;;5067070;28;20376;-87
2021/07/17 07:54:42;;;;;;;1.55;0.43;;;9.50;99.50;;;;;;5084016;28;20900;-86
2021/07/17 07:57:09;;;;;;;1.55;0.60;;;9.40;99.90;;;;;;5074765;28;20962;-87
2021/07/17 07:59:36;;;;;;;2.30;0.80;;;9.30;99.90;;;;;;5069339;28;20393;-87
2021/07/17 08:02:04;;;;;;;2.85;0.65;;;9.30;99.90;;;;;;5071158;28;20392;-87
2021/07/17 08:04:31;;;;;;;3.28;0.55;;;9.30;99.90;;;;;;5057828;28;20400;-85
2021/07/17 08:06:58;;;;;;;1.27;0.60;;;9.20;99.90;;;;;;5053550;28;20429;-86
2021/07/17 08:09:25;;;;;;;4.60;0.67;;;9.30;99.90;;;;;;5059794;28;20434;-87
2021/07/17 08:11:52;;;;;;;2.60;0.53;;;9.30;99.90;;;;;;5054048;28;20403;-87
2021/07/17 08:14:19;;;;;;;1.30;0.60;;;9.20;99.90;;;;;;5056922;28;20405;-86
2021/07/17 08:16:46;;;;;;;1.20;0.50;;;9.20;99.90;;;;;;5054228;28;20765;-86
2021/07/17 08:19:13;;;;;;;1.80;0.70;;;9.20;99.90;;;;;;5057303;28;21015;-85
2021/07/17 08:21:40;;;;;;;2.10;0.57;;;9.10;99.90;;;;;;5058482;28;20404;-88
2021/07/17 08:24:08;;;;;;;1.25;0.68;;;9.10;99.90;;;;;;5063119;28;20410;-85
2021/07/17 08:26:37;;;;;;;2.67;0.82;;;9.10;99.90;;;;;;5069199;28;20415;-88
2021/07/17 08:29:05;;;;;;;3.08;0.70;;;9.10;99.90;;;;;;5058518;28;20400;-87
2021/07/17 08:31:32;;;;;;;2.75;0.70;;;9.10;99.90;;;;;;5066137;28;20400;-89
2021/07/17 08:33:59;;;;;;;2.53;0.70;;;9.00;99.90;;;;;;5058797;28;20401;-87
2021/07/17 08:36:26;;;;;;;1.45;0.55;;;9.00;99.90;;;;;;5062956;28;20386;-87
2021/07/17 08:38:53;;;;;;;2.00;0.70;;;8.90;99.90;;;;;;5059241;28;20401;-86
2021/07/17 08:41:26;;;;;;;1.30;0.60;;;8.80;99.90;;;;;;5051455;28;20391;-87
2021/07/17 08:43:57;;;;;;;2.72;0.90;;;8.80;99.90;;;;;;5051467;28;20396;-87
2021/07/17 08:46:24;;;;;;;1.70;0.80;;;8.80;99.90;;;;;;5059492;28;20437;-85
2021/07/17 08:48:55;;;;;;;1.52;1.00;;;8.70;99.90;;;;;;5053370;28;20412;-86
2021/07/17 08:51:23;;;;;;;2.38;1.10;;;8.70;99.90;;;;;;5073871;28;20392;-87
2021/07/17 08:53:50;;;;;;;2.50;0.90;;;8.60;99.90;;;;;;5055579;28;20393;-86
2021/07/17 08:56:18;;;;;;;2.40;0.80;;;8.60;99.90;;;;;;5054187;28;20453;-87
2021/07/17 08:58:45;;;;;;;1.95;0.73;;;8.50;99.90;;;;;;5052519;28;20457;-88
2021/07/17 09:01:16;;;;;;;3.03;0.80;;;8.60;99.90;;;;;;5052113;28;20499;-86
2021/07/17 09:03:43;;;;;;;1.55;0.77;;;8.60;99.90;;;;;;5062032;28;20396;-86
2021/07/17 09:06:10;;;;;;;3.17;0.77;;;8.60;99.90;;;;;;5069359;28;20785;-85
2021/07/17 09:08:37;;;;;;;1.43;0.63;;;8.60;99.90;;;;;;5075465;28;20467;-85
2021/07/17 09:11:04;;;;;;;2.25;0.80;;;8.60;99.90;;;;;;5066112;28;20394;-86
2021/07/17 09:13:33;;;;;;;0.40;0.40;;;8.50;99.90;;;;;;5061547;28;20452;-86
2021/07/17 09:16:11;;;;;;;1.73;0.65;;;8.60;99.90;;;;;;5053748;28;20402;-86
2021/07/17 09:18:52;;;;;;;1.35;0.50;;;8.60;99.90;;;;;;5054859;28;20876;-84
2021/07/17 09:21:37;;;;;;;2.10;0.57;;;8.70;99.90;;;;;;5060935;28;20491;-86
2021/07/17 09:24:07;;;;;;;1.75;0.50;;;8.70;99.90;;;;;;5063535;28;20481;-87
2021/07/17 09:26:37;;;;;;;1.08;0.60;;;8.70;99.90;;;;;;5067661;28;20459;-87
2021/07/17 09:29:10;;;;;;;0.70;0.50;;;8.80;99.90;;;;;;5067048;28;20587;-88
2021/07/17 09:31:38;;;;;;;1.08;0.60;;;8.70;99.90;;;;;;5067457;28;20823;-86
2021/07/17 09:34:12;;;;;;;0.95;0.45;;;8.80;99.90;;;;;;5057631;28;20763;-87
2021/07/17 09:36:56;;;;;;;2.33;0.45;;;8.80;99.90;;;;;;5056230;28;20413;-87
2021/07/17 09:39:38;;;;;;;2.80;0.60;;;8.60;99.90;;;;;;5066637;28;20530;-87
2021/07/17 09:42:09;;;;;;;1.13;0.50;;;8.60;99.90;;;;;;5091283;27;20966;-87
2021/07/17 09:44:36;;;;;;;0.85;0.45;;;8.70;99.90;;;;;;5058395;28;20432;-87
2021/07/17 09:47:18;;;;;;;1.48;0.77;;;8.60;99.90;;;;;;5065445;28;21276;-87
2021/07/17 09:49:46;;;;;;;1.70;0.60;;;8.60;99.90;;;;;;5055708;28;20395;-87
2021/07/17 09:52:17;;;;;;;2.50;0.70;;;8.60;99.90;;;;;;5059310;28;20493;-87
2021/07/17 09:55:03;;;;;;;0.50;0.40;;;8.60;99.90;;;;;;5066409;28;22162;-86
2021/07/17 09:57:31;;;;;;;0.57;0.47;;;8.50;99.90;;;;;;5062521;28;20389;-85
2021/07/17 10:00:19;;;;;;;1.27;0.60;;;8.50;99.90;;;;;;5064480;28;20444;-87
2021/07/17 10:02:46;;;;;;;0.60;0.40;;;8.60;99.90;;;;;;5059504;28;20416;-87
2021/07/17 10:05:18;;;;;;;0.60;0.43;;;8.70;99.90;;;;;;5061056;28;20444;-87
2021/07/17 10:07:46;;;;;;;0.63;0.40;;;8.80;99.90;;;;;;5064864;28;20412;-86
2021/07/17 10:10:13;;;;;;;0.50;0.30;;;8.80;99.90;;;;;;5055617;28;20393;-88
2021/07/17 10:12:42;;;;;;;0.52;0.32;;;8.70;99.90;;;;;;5068368;28;20483;-85
2021/07/17 10:15:16;;;;;;;1.67;0.52;;;8.80;99.90;;;;;;5058223;28;20461;-86
2021/07/17 10:17:45;;;;;;;0.70;0.40;;;8.80;99.90;;;;;;5053623;28;20865;-86
2021/07/17 10:20:16;;;;;;;0.52;0.50;;;8.70;99.90;;;;;;5057201;28;20446;-87
2021/07/17 10:22:44;;;;;;;2.65;0.22;;;8.70;99.90;;;;;;5051203;28;20400;-86
2021/07/17 10:25:14;;;;;;;0.20;0.20;;;8.70;99.90;;;;;;5058227;28;20398;-87
2021/07/17 10:27:41;;;;;;;0.25;0.22;;;8.90;99.90;;;;;;5049493;28;20415;-86
2021/07/17 10:30:11;;;;;;;0.30;0.17;;;8.90;99.90;;;;;;5064291;28;20395;-85
2021/07/17 10:32:39;;;;;;;0.10;0.10;;;8.90;99.90;;;;;;5053471;28;20494;-86
2021/07/17 10:35:07;;;;;;;0.30;0.10;;;8.90;99.90;;;;;;5052207;28;20470;-85
2021/07/17 10:37:36;;;;;;;37.88;2.13;;;9.00;99.90;;;;;;5054605;28;20440;-87
2021/07/17 10:40:13;;;;;;;0.90;0.10;;;9.00;99.90;;;;;;5053902;28;20396;-86
2021/07/17 10:42:48;;;;;;;0.50;0.20;;;9.00;99.90;;;;;;5070929;28;20388;-86
2021/07/17 10:45:35;;;;;;;1.50;0.30;;;9.00;99.90;;;;;;5068644;28;20808;-86
2021/07/17 10:48:03;;;;;;;1.40;0.10;;;8.90;99.90;;;;;;5033423;28;21588;-87
2021/07/17 10:50:36;;;;;;;0.28;0.20;;;8.90;99.90;;;;;;5034617;28;20405;-86
2021/07/17 10:53:03;;;;;;;0.17;0.10;;;9.00;99.90;;;;;;5032011;28;20428;-85
2021/07/17 10:55:39;;;;;;;0.20;0.10;;;9.00;99.90;;;;;;5034607;28;20401;-87
2021/07/17 10:58:11;;;;;;;0.40;0.10;;;9.00;99.90;;;;;;5036783;28;20408;-84
2021/07/17 11:00:54;;;;;;;0.70;0.20;;;9.00;99.90;;;;;;5036715;28;20397;-89
2021/07/17 11:03:32;;;;;;;0.77;0.10;;;9.00;99.90;;;;;;5037876;28;20409;-87
2021/07/17 11:06:27;;;;;;;1.30;0.10;;;9.00;99.90;;;;;;5040849;28;20434;-85
2021/07/17 11:09:18;;;;;;;1.20;0.20;;;9.00;99.90;;;;;;5036595;28;20946;-88
2021/07/17 11:11:45;;;;;;;0.20;0.10;;;8.90;99.90;;;;;;5051150;28;20462;-85
2021/07/17 11:14:12;;;;;;;1.13;0.20;;;8.90;99.90;;;;;;5050254;28;20391;-85
2021/07/17 11:16:42;;;;;;;0.20;0.20;;;8.80;99.90;;;;;;5033748;28;20387;-86
2021/07/17 11:19:18;;;;;;;0.10;0.10;;;8.80;99.90;;;;;;5029306;28;20373;-86
2021/07/17 11:21:46;;;;;;;1.00;0.20;;;8.80;99.90;;;;;;5036352;28;20390;-87
2021/07/17 11:24:14;;;;;;;0.33;0.20;;;8.80;99.90;;;;;;5037426;28;20551;-88
2021/07/17 11:26:42;;;;;;;0.20;0.20;;;8.80;99.90;;;;;;5032202;28;20401;-87
2021/07/17 11:29:13;;;;;;;0.50;0.50;;;8.80;99.90;;;;;;5038931;28;20395;-86
2021/07/17 11:31:43;;;;;;;0.30;0.10;;;8.80;99.90;;;;;;5050363;28;20392;-87
2021/07/17 11:34:21;;;;;;;0.20;0.20;;;8.80;99.90;;;;;;5041762;28;20405;-85
2021/07/17 11:36:52;;;;;;;0.30;0.20;;;8.80;99.90;;;;;;5037345;28;20397;-86
2021/07/17 11:39:21;;;;;;;0.30;0.20;;;8.70;99.90;;;;;;5029243;28;20426;-86
2021/07/17 11:41:49;;;;;;;0.50;0.20;;;8.70;99.90;;;;;;5040376;28;20751;-88
2021/07/17 11:44:16;;;;;;;0.10;0.10;;;8.70;99.90;;;;;;5046403;28;20446;-88
2021/07/17 11:47:03;;;;;;;0.73;0.10;;;8.70;99.90;;;;;;5047202;28;20447;-87
2021/07/17 11:49:44;;;;;;;0.20;0.20;;;8.70;99.90;;;;;;5061012;28;20487;-87
2021/07/17 11:52:16;;;;;;;0.20;0.20;;;8.70;99.90;;;;;;5051167;28;20441;-87
2021/07/17 11:54:54;;;;;;;1.10;0.40;;;8.70;99.90;;;;;;5055941;28;20392;-86
2021/07/17 11:57:32;;;;;;;0.68;0.20;;;8.80;99.90;;;;;;5068332;28;20382;-86
2021/07/17 12:00:05;;;;;;;0.27;0.27;;;8.70;99.90;;;;;;5050607;28;20384;-86
2021/07/17 12:02:33;;;;;;;0.52;0.20;;;8.70;99.90;;;;;;5056761;28;20413;-86
2021/07/17 12:05:14;;;;;;;0.20;0.20;;;8.70;99.90;;;;;;5056348;28;20399;-87
2021/07/17 12:07:43;;;;;;;0.30;0.20;;;8.80;99.90;;;;;;5062744;28;20904;-85
2021/07/17 12:10:15;;;;;;;0.10;0.10;;;8.80;99.90;;;;;;5076738;28;20406;-85
2021/07/17 12:12:52;;;;;;;0.50;0.20;;;8.80;99.90;;;;;;5057543;28;20378;-83
2021/07/17 12:15:36;;;;;;;0.20;0.17;;;8.80;99.90;;;;;;5057166;28;20395;-85
2021/07/17 12:18:06;;;;;;;0.10;0.10;;;8.90;99.90;;;;;;5064956;28;22597;-85
2021/07/17 12:20:47;;;;;;;0.40;0.20;;;8.90;99.90;;;;;;5061068;28;20788;-86
2021/07/17 12:23:20;;;;;;;0.47;0.20;;;8.90;99.90;;;;;;5071024;28;20408;-86
2021/07/17 12:25:49;;;;;;;0.20;0.20;;;9.00;99.90;;;;;;5065357;28;20441;-84
2021/07/17 12:28:18;;;;;;;0.30;0.20;;;9.00;99.90;;;;;;5056635;28;20420;-84
2021/07/17 12:30:54;;;;;;;0.30;0.30;;;9.00;99.90;;;;;;5057744;28;20382;-85
2021/07/17 12:33:24;;;;;;;0.50;0.50;;;9.00;99.90;;;;;;5067616;28;21093;-85
2021/07/17 12:36:00;;;;;;;0.95;0.28;;;9.00;99.90;;;;;;5086449;28;20387;-85
2021/07/17 12:38:29;;;;;;;0.20;0.20;;;8.90;99.90;;;;;;5049869;28;20883;-83
2021/07/17 12:41:05;;;;;;;1.15;0.85;;;8.90;99.90;;;;;;5065474;28;20402;-85
2021/07/17 12:43:45;;;;;;;0.60;0.40;;;8.90;99.90;;;;;;5059377;28;20392;-86
2021/07/17 12:46:21;;;;;;;0.30;0.30;;;8.80;99.90;;;;;;5068876;28;20399;-84
2021/07/17 12:48:51;;;;;;;1.00;0.25;;;8.80;99.90;;;;;;5061740;28;20409;-85
2021/07/17 12:51:23;;;;;;;0.20;0.20;;;8.80;99.90;;;;;;5089262;28;20809;-86
2021/07/17 12:53:52;;;;;;;0.80;0.20;;;8.70;99.90;;;;;;5084796;28;20396;-85
2021/07/17 12:56:38;;;;;;;0.10;0.10;;;8.80;99.90;;;;;;5092553;28;20388;-85
2021/07/17 12:59:14;;;;;;;0.20;0.20;;;8.80;99.90;;;;;;5086044;28;20429;-84
2021/07/17 13:01:54;;;;;;;0.10;0.10;;;8.80;99.90;;;;;;5075361;28;20818;-84